TimeMST,TemperatureF,Dew PointF,Humidity,Sea Level PressureIn,VisibilityMPH,Wind Direction,Wind SpeedMPH,Gust SpeedMPH,PrecipitationIn,Events,Conditions,WindDirDegrees,DateUTC
12:56 AM,41.0,17.1,38,30.20,10.0,Calm,Calm,-,N/A,,Clear,0,2012-11-06 07:56:00
1:56 AM,39.0,16.0,39,30.21,10.0,Calm,Calm,-,N/A,,Clear,0,2012-11-06 08:56:00
2:56 AM,36.0,14.0,41,30.21,10.0,ESE,3.5,-,N/A,,Clear,120,2012-11-06 09:56:00
3:56 AM,35.1,12.9,40,30.23,10.0,SE,4.6,-,N/A,,Clear,130,2012-11-06 10:56:00
4:56 AM,33.1,12.0,42,30.24,10.0,Calm,Calm,-,N/A,,Clear,0,2012-11-06 11:56:00
5:56 AM,33.1,12.9,43,30.30,10.0,Calm,Calm,-,N/A,,Clear,0,2012-11-06 12:56:00
6:56 AM,30.9,10.9,43,30.33,10.0,SE,3.5,-,N/A,,Clear,130,2012-11-06 13:56:00
7:56 AM,37.0,15.1,41,30.32,10.0,ESE,4.6,-,N/A,,Clear,110,2012-11-06 14:56:00
8:56 AM,45.0,17.1,33,30.32,10.0,ESE,4.6,-,N/A,,Clear,110,2012-11-06 15:56:00
9:56 AM,52.0,19.0,27,30.30,10.0,Calm,Calm,-,N/A,,Clear,0,2012-11-06 16:56:00
10:56 AM,57.9,21.0,24,30.28,10.0,Calm,Calm,-,N/A,,Clear,0,2012-11-06 17:56:00
11:56 AM,64.9,21.9,19,30.23,10.0,NNE,4.6,-,N/A,,Clear,20,2012-11-06 18:56:00
12:56 PM,66.9,23.0,19,30.19,10.0,Calm,Calm,-,N/A,,Clear,0,2012-11-06 19:56:00
1:56 PM,70.0,23.0,17,30.16,10.0,Variable,4.6,-,N/A,,Clear,0,2012-11-06 20:56:00
2:56 PM,71.1,23.0,16,30.15,10.0,Variable,3.5,-,N/A,,Clear,0,2012-11-06 21:56:00
3:56 PM,71.1,21.9,16,30.15,10.0,NW,3.5,-,N/A,,Clear,320,2012-11-06 22:56:00
4:56 PM,69.1,21.9,17,30.15,10.0,Calm,Calm,-,N/A,,Clear,0,2012-11-06 23:56:00
5:56 PM,57.0,19.0,23,30.19,10.0,Calm,Calm,-,N/A,,Clear,0,2012-11-07 00:56:00
6:56 PM,46.9,12.9,25,30.23,10.0,WNW,4.6,-,N/A,,Clear,290,2012-11-07 01:56:00
7:56 PM,44.1,12.9,28,30.22,10.0,SW,4.6,-,N/A,,Clear,230,2012-11-07 02:56:00
8:56 PM,44.1,16.0,32,30.22,10.0,SW,3.5,-,N/A,,Clear,220,2012-11-07 03:56:00
9:56 PM,44.1,17.1,34,30.20,10.0,Calm,Calm,-,N/A,,Clear,0,2012-11-07 04:56:00
10:56 PM,43.0,18.0,37,30.18,10.0,South,3.5,-,N/A,,Clear,180,2012-11-07 05:56:00
11:56 PM,37.9,15.1,39,30.19,10.0,SE,5.8,-,N/A,,Clear,130,2012-11-07 06:56:00